Time;durP1;ratioP1;P1;durP2;ratioP2;P2;SDS_P1;SDS_P2;PMS_P1;PMS_P2;Temp;Humidity;BMP_temperature;BMP_pressure;BME280_temperature;BME280_humidity;BME280_pressure;Samples;Min_cycle;Max_cycle;Signal;HPM_P1;HPM_P2
2022/04/07 00:01:18;;;;;;;4.70;2.40;;;;;;;9.07;81.60;98631.91;4993094;28;20046;-87
2022/04/07 00:03:45;;;;;;;4.97;2.05;;;;;;;9.08;82.19;98630.13;4978628;28;20041;-85
2022/04/07 00:06:15;;;;;;;3.67;2.50;;;;;;;8.99;82.55;98631.41;4994580;28;20037;-85
2022/04/07 00:08:44;;;;;;;3.70;2.10;;;;;;;9.05;82.13;98617.13;4979635;28;20061;-87
2022/04/07 00:11:13;;;;;;;3.97;2.28;;;;;;;8.97;82.17;98623.59;4996540;28;20049;-87
2022/04/07 00:13:39;;;;;;;2.78;2.15;;;;;;;8.97;83.14;98618.34;4993675;28;20050;-86
2022/04/07 00:16:12;;;;;;;3.33;2.50;;;;;;;9.00;82.79;98604.19;4997063;28;20034;-87
2022/04/07 00:18:39;;;;;;;4.07;2.00;;;;;;;8.95;82.98;98601.75;4978923;28;20151;-86
2022/04/07 00:21:11;;;;;;;3.58;2.20;;;;;;;8.89;82.99;98596.75;4994885;28;20041;-85
2022/04/07 00:23:40;;;;;;;3.03;2.20;;;;;;;8.82;83.70;98587.44;5017924;23;20055;-81
2022/04/07 00:26:07;;;;;;;4.60;2.20;;;;;;;8.88;83.33;98589.78;5033051;28;20037;-81
2022/04/07 00:28:34;;;;;;;4.20;2.28;;;;;;;8.84;84.10;98577.72;5033873;28;20539;-81
2022/04/07 00:31:00;;;;;;;4.40;2.42;;;;;;;8.86;84.31;98573.22;5018218;28;20067;-81
2022/04/07 00:33:27;;;;;;;4.88;2.15;;;;;;;8.90;84.29;98581.81;5029793;28;20052;-81
2022/04/07 00:35:54;;;;;;;2.70;2.10;;;;;;;8.87;83.95;98574.06;5051732;28;20036;-81
2022/04/07 00:38:21;;;;;;;5.82;2.55;;;;;;;8.88;83.78;98566.09;5017623;28;20044;-80
2022/04/07 00:40:48;;;;;;;4.47;2.35;;;;;;;8.93;83.08;98558.00;5017725;28;20048;-81
2022/04/07 00:43:29;;;;;;;6.70;3.03;;;;;;;9.02;83.09;98547.88;5048279;28;20123;-81
2022/04/07 00:45:56;;;;;;;4.70;2.20;;;;;;;9.00;82.86;98547.09;5050411;28;20127;-80
2022/04/07 00:48:23;;;;;;;6.47;2.50;;;;;;;8.96;83.69;98549.94;5022855;28;20121;-81
2022/04/07 00:50:50;;;;;;;3.92;2.20;;;;;;;8.99;83.53;98542.72;5017639;28;20044;-81
2022/04/07 00:53:18;;;;;;;3.92;2.28;;;;;;;8.91;83.52;98536.13;5044321;28;20044;-81
2022/04/07 00:55:45;;;;;;;3.92;2.40;;;;;;;8.83;83.96;98538.25;5025559;28;20041;-81
2022/04/07 00:58:11;;;;;;;5.82;2.85;;;;;;;8.82;84.00;98536.56;5024888;28;20044;-81
2022/04/07 01:00:38;;;;;;;3.97;2.17;;;;;;;8.79;84.18;98534.09;5049576;28;20045;-81
2022/04/07 01:03:05;;;;;;;3.70;2.53;;;;;;;8.72;84.60;98528.25;5016138;28;20036;-81
2022/04/07 01:05:31;;;;;;;4.10;2.30;;;;;;;8.66;85.48;98523.25;5049392;28;20041;-80
2022/04/07 01:07:59;;;;;;;4.32;2.05;;;;;;;8.68;84.96;98516.16;5034137;28;20029;-81
2022/04/07 01:10:28;;;;;;;4.78;2.28;;;;;;;8.57;85.82;98526.31;5030770;28;20056;-80
2022/04/07 01:12:55;;;;;;;3.15;2.25;;;;;;;8.51;85.72;98527.47;5026242;28;20052;-81
2022/04/07 01:15:22;;;;;;;3.22;2.45;;;;;;;8.48;86.69;98519.69;5049539;28;20079;-81
2022/04/07 01:17:49;;;;;;;3.13;2.15;;;;;;;8.48;86.47;98514.44;5051023;28;20041;-81
2022/04/07 01:20:15;;;;;;;3.35;2.47;;;;;;;8.52;87.40;98517.81;5048316;28;20036;-80
2022/04/07 01:22:44;;;;;;;3.17;2.13;;;;;;;8.52;87.60;98512.53;5024692;28;20087;-80
2022/04/07 01:25:11;;;;;;;3.95;2.33;;;;;;;8.47;87.48;98510.09;5023156;28;20066;-80
2022/04/07 01:27:38;;;;;;;4.43;2.08;;;;;;;8.53;86.67;98508.97;5050409;28;20752;-80
2022/04/07 01:30:08;;;;;;;5.20;2.53;;;;;;;8.54;86.25;98506.28;5014561;28;20055;-81
2022/04/07 01:32:40;;;;;;;4.28;2.58;;;;;;;8.58;86.46;98512.25;5026394;28;20037;-81
2022/04/07 01:35:08;;;;;;;3.30;2.10;;;;;;;8.46;87.08;98506.63;5049598;28;20032;-80
2022/04/07 01:37:37;;;;;;;3.10;2.50;;;;;;;8.48;86.90;98501.28;5017767;28;20090;-81
2022/04/07 01:40:04;;;;;;;4.13;2.45;;;;;;;8.52;87.05;98494.97;5032186;28;20033;-80
2022/04/07 01:42:32;;;;;;;3.83;2.50;;;;;;;8.39;88.27;98502.56;5032842;28;20417;-81
2022/04/07 01:45:02;;;;;;;5.95;2.50;;;;;;;8.47;88.46;98491.69;5015327;28;20039;-80
2022/04/07 01:47:29;;;;;;;3.30;2.10;;;;;;;8.51;88.57;98495.03;5026533;28;20056;-80
2022/04/07 01:50:05;;;;;;;3.80;2.83;;;;;;;8.51;89.04;98484.53;5010775;28;20037;-81
2022/04/07 01:52:32;;;;;;;5.43;2.30;;;;;;;8.58;88.12;98491.22;5048730;28;20044;-81
2022/04/07 01:55:00;;;;;;;3.80;2.40;;;;;;;8.59;87.66;98483.22;5020076;28;20044;-80
2022/04/07 01:57:27;;;;;;;4.32;2.00;;;;;;;8.61;88.30;98477.91;5015788;28;20120;-81
2022/04/07 01:59:54;;;;;;;4.07;2.42;;;;;;;8.60;87.99;98476.19;5017382;28;20048;-81
2022/04/07 02:02:24;;;;;;;6.93;2.47;;;;;;;8.62;88.11;98484.84;5016950;28;20049;-81
2022/04/07 02:04:57;;;;;;;4.22;2.53;;;;;;;8.69;87.74;98486.28;5015714;28;20041;-81
2022/04/07 02:07:29;;;;;;;5.37;2.50;;;;;;;8.58;88.93;98480.69;5028492;28;20041;-81
2022/04/07 02:09:56;;;;;;;4.78;2.97;;;;;;;8.71;87.04;98481.78;5029367;28;20044;-81
2022/04/07 02:12:23;;;;;;;3.17;2.13;;;;;;;8.70;87.64;98472.19;5031940;28;20044;-81
2022/04/07 02:14:50;;;;;;;3.47;2.08;;;;;;;8.78;87.22;98477.94;5001632;28;20052;-80
2022/04/07 02:17:20;;;;;;;4.18;2.38;;;;;;;8.77;87.00;98478.88;5035208;28;20052;-81
2022/04/07 02:19:49;;;;;;;4.47;2.67;;;;;;;8.75;87.76;98464.94;5031136;28;20045;-80
2022/04/07 02:22:16;;;;;;;3.50;2.22;;;;;;;8.78;87.65;98474.47;5047008;28;20047;-81
2022/04/07 02:24:43;;;;;;;4.53;2.60;;;;;;;8.71;87.85;98469.47;5013804;28;20037;-80
2022/04/07 02:27:10;;;;;;;5.68;2.60;;;;;;;8.71;88.52;98460.72;5000163;28;20051;-80
2022/04/07 02:29:37;;;;;;;4.03;2.70;;;;;;;8.69;87.69;98460.81;5001137;28;20041;-81
2022/04/07 02:32:04;;;;;;;5.03;2.75;;;;;;;8.67;88.87;98459.19;5051788;28;20040;-80
2022/04/07 02:34:31;;;;;;;5.13;2.75;;;;;;;8.76;87.84;98453.47;5035010;28;20041;-79
2022/04/07 02:36:58;;;;;;;8.68;2.72;;;;;;;8.71;88.53;98451.03;5036446;28;20041;-80
2022/04/07 02:39:24;;;;;;;4.72;2.60;;;;;;;8.74;88.33;98450.03;5050410;28;20386;-81
2022/04/07 02:41:51;;;;;;;4.65;2.65;;;;;;;8.76;88.31;98450.00;5017246;28;20045;-81
2022/04/07 02:44:18;;;;;;;5.80;3.67;;;;;;;8.75;88.34;98446.50;5014850;28;20045;-81
2022/04/07 02:46:45;;;;;;;5.10;3.13;;;;;;;8.74;89.33;98450.03;5018069;28;20067;-81
2022/04/07 02:49:12;;;;;;;6.43;3.10;;;;;;;8.82;88.37;98441.78;5018704;28;20560;-80
2022/04/07 02:51:39;;;;;;;6.22;2.90;;;;;;;8.73;89.31;98437.81;5046979;28;20050;-81
2022/04/07 02:54:06;;;;;;;8.60;3.25;;;;;;;8.80;88.95;98431.31;5022040;28;20037;-81
2022/04/07 02:56:32;;;;;;;4.75;2.90;;;;;;;8.78;88.53;98435.81;5035530;28;20036;-80
2022/04/07 02:58:59;;;;;;;6.68;3.47;;;;;;;8.88;87.91;98421.25;5018437;28;20091;-81
2022/04/07 03:01:28;;;;;;;6.18;2.95;;;;;;;8.91;88.53;98422.88;5030226;28;20417;-80
2022/04/07 03:03:56;;;;;;;7.03;3.08;;;;;;;8.90;88.76;98418.56;5017476;28;20047;-81
2022/04/07 03:06:23;;;;;;;4.30;3.28;;;;;;;8.89;88.46;98422.13;5031992;28;20056;-81
2022/04/07 03:08:50;;;;;;;5.55;3.05;;;;;;;8.90;89.47;98423.81;5032718;28;20091;-80
2022/04/07 03:11:17;;;;;;;6.63;3.60;;;;;;;8.93;88.72;98418.41;5032693;28;20037;-80
2022/04/07 03:13:44;;;;;;;5.35;3.25;;;;;;;8.84;88.53;98403.06;5049826;28;20037;-81
2022/04/07 03:16:11;;;;;;;5.35;3.28;;;;;;;8.76;88.93;98405.22;5018607;28;20036;-81
2022/04/07 03:18:37;;;;;;;7.13;3.10;;;;;;;8.68;89.58;98408.25;5033390;28;20094;-81
2022/04/07 03:21:04;;;;;;;9.02;3.60;;;;;;;8.64;90.33;98399.63;5044109;28;20045;-81
2022/04/07 03:23:31;;;;;;;5.05;3.30;;;;;;;8.58;90.69;98394.69;5039918;28;20048;-81
2022/04/07 03:25:59;;;;;;;5.95;3.15;;;;;;;8.38;91.38;98403.50;5038883;28;20036;-81
2022/04/07 03:28:26;;;;;;;4.35;3.00;;;;;;;8.45;92.70;98397.03;5054261;28;20398;-81
2022/04/07 03:30:53;;;;;;;6.45;3.40;;;;;;;8.45;93.31;98389.13;5028020;28;20417;-81
2022/04/07 03:33:20;;;;;;;6.70;3.45;;;;;;;8.48;92.55;98382.88;5003400;28;20041;-80
2022/04/07 03:35:47;;;;;;;5.88;3.70;;;;;;;8.42;91.74;98381.41;5023276;28;20033;-81
2022/04/07 03:38:13;;;;;;;5.95;3.22;;;;;;;8.54;91.59;98382.56;5020668;28;20037;-81
2022/04/07 03:40:40;;;;;;;5.97;3.33;;;;;;;8.36;92.16;98365.91;5046950;28;20044;-81
2022/04/07 03:43:07;;;;;;;6.68;4.05;;;;;;;8.34;92.67;98375.63;5051088;28;20041;-81
2022/04/07 03:45:34;;;;;;;5.97;4.15;;;;;;;8.29;93.28;98374.97;5035322;28;20029;-81
2022/04/07 03:48:01;;;;;;;7.38;3.53;;;;;;;8.22;93.52;98370.06;5036506;28;20048;-81
2022/04/07 03:50:27;;;;;;;6.60;3.70;;;;;;;8.25;94.00;98355.03;5027693;28;20076;-81
2022/04/07 03:52:54;;;;;;;6.22;4.07;;;;;;;8.15;94.45;98362.47;5036703;28;20044;-80
2022/04/07 03:55:22;;;;;;;7.28;4.07;;;;;;;8.21;94.15;98371.84;5012904;28;20041;-80
2022/04/07 03:57:49;;;;;;;5.72;3.75;;;;;;;8.18;94.54;98372.00;5032777;28;20063;-81
2022/04/07 04:00:16;;;;;;;6.63;3.67;;;;;;;8.11;94.92;98370.59;5012102;28;20044;-80
2022/04/07 04:02:43;;;;;;;7.15;3.67;;;;;;;8.09;95.47;98361.94;5070625;28;20040;-80
2022/04/07 04:05:10;;;;;;;4.97;3.70;;;;;;;8.07;96.10;98363.75;5032803;28;20198;-80
2022/04/07 04:07:37;;;;;;;5.90;3.75;;;;;;;8.08;96.62;98355.81;5029853;28;20036;-81
2022/04/07 04:10:04;;;;;;;7.20;3.50;;;;;;;8.07;96.46;98353.25;5016806;28;20382;-80
2022/04/07 04:12:31;;;;;;;8.77;4.27;;;;;;;8.13;95.45;98339.81;5032233;28;20037;-81
2022/04/07 04:14:57;;;;;;;8.27;4.33;;;;;;;8.05;96.45;98350.69;5031632;28;20036;-81
2022/04/07 04:17:27;;;;;;;7.35;4.35;;;;;;;8.10;96.73;98346.06;5031523;28;20508;-81
2022/04/07 04:19:54;;;;;;;6.25;3.88;;;;;;;8.03;97.70;98347.28;5045425;28;20045;-81
2022/04/07 04:22:21;;;;;;;8.60;4.23;;;;;;;8.15;97.30;98345.84;5036082;28;20086;-81
2022/04/07 04:24:48;;;;;;;7.70;4.35;;;;;;;8.17;99.20;98338.75;5026863;28;20114;-81
2022/04/07 04:27:15;;;;;;;10.57;4.80;;;;;;;8.17;100.00;98334.34;5038245;28;20052;-80
2022/04/07 04:29:43;;;;;;;6.32;4.15;;;;;;;8.17;100.00;98328.22;5036260;28;20044;-81
2022/04/07 04:32:10;;;;;;;7.72;4.57;;;;;;;8.15;100.00;98324.78;5036597;28;20047;-81
2022/04/07 04:34:36;;;;;;;10.43;5.37;;;;;;;8.20;100.00;98314.94;5032987;28;20033;-80
2022/04/07 04:37:03;;;;;;;7.68;4.60;;;;;;;8.16;100.00;98306.34;5018143;28;20041;-80
2022/04/07 04:39:35;;;;;;;6.88;4.35;;;;;;;8.16;100.00;98300.22;5017212;28;20051;-80
2022/04/07 04:42:04;;;;;;;6.57;4.57;;;;;;;8.14;100.00;98305.53;5025748;28;20047;-80
2022/04/07 04:44:31;;;;;;;8.83;4.40;;;;;;;8.17;100.00;98312.44;5027867;28;20043;-80
2022/04/07 04:46:57;;;;;;;8.80;5.03;;;;;;;8.22;100.00;98304.31;5037441;28;20044;-80
2022/04/07 04:49:24;;;;;;;8.95;4.20;;;;;;;8.26;100.00;98295.38;5051017;28;20045;-81
2022/04/07 04:51:51;;;;;;;6.40;4.07;;;;;;;8.30;100.00;98297.75;5019046;28;20044;-81
2022/04/07 04:54:18;;;;;;;6.65;4.10;;;;;;;8.35;100.00;98290.53;5033165;28;20056;-81
2022/04/07 04:56:44;;;;;;;8.45;4.10;;;;;;;8.31;100.00;98281.03;5038828;28;20033;-80
2022/04/07 04:59:11;;;;;;;8.57;4.32;;;;;;;8.39;100.00;98271.03;5032457;28;20067;-81
2022/04/07 05:01:38;;;;;;;5.45;3.90;;;;;;;8.44;100.00;98279.56;5029966;28;20041;-81
2022/04/07 05:04:06;;;;;;;8.10;4.45;;;;;;;8.50;100.00;98275.78;5017799;28;20453;-80
2022/04/07 05:06:32;;;;;;;8.43;4.30;;;;;;;8.57;99.74;98281.56;5053032;28;20128;-79
2022/04/07 05:08:59;;;;;;;8.40;4.55;;;;;;;8.60;99.87;98277.00;5020735;28;20052;-79
2022/04/07 05:11:26;;;;;;;6.32;4.15;;;;;;;8.65;99.12;98282.03;5022135;28;20085;-79
2022/04/07 05:13:53;;;;;;;6.70;3.75;;;;;;;8.60;99.04;98282.28;5053501;28;20066;-79
2022/04/07 05:16:19;;;;;;;8.25;3.95;;;;;;;8.63;99.48;98279.47;5004944;28;20068;-79
2022/04/07 05:18:48;;;;;;;7.93;3.55;;;;;;;8.64;100.00;98273.28;5019886;28;20056;-79
2022/04/07 05:21:16;;;;;;;5.75;3.75;;;;;;;8.73;98.86;98266.69;5004230;28;20048;-79
2022/04/07 05:23:43;;;;;;;5.15;3.40;;;;;;;8.69;100.00;98260.75;5026771;28;20651;-79
2022/04/07 05:26:12;;;;;;;5.13;3.42;;;;;;;8.76;99.32;98263.94;5056060;28;20501;-79
2022/04/07 05:28:40;;;;;;;6.30;4.00;;;;;;;8.70;99.74;98261.59;5058622;28;20052;-79
2022/04/07 05:31:06;;;;;;;6.38;3.70;;;;;;;8.75;100.00;98251.69;5038866;28;20047;-79
2022/04/07 05:33:33;;;;;;;5.60;3.70;;;;;;;8.78;99.90;98248.91;5027733;28;20076;-79
2022/04/07 05:36:00;;;;;;;6.32;3.80;;;;;;;8.77;100.00;98249.81;5021288;28;20055;-80
2022/04/07 05:38:27;;;;;;;6.00;3.97;;;;;;;8.86;100.00;98256.41;5039265;28;20282;-80
2022/04/07 05:40:54;;;;;;;5.50;3.72;;;;;;;8.91;100.00;98254.34;5023898;28;20067;-79
2022/04/07 05:43:21;;;;;;;5.80;3.92;;;;;;;8.87;100.00;98250.19;5054964;28;20040;-80
2022/04/07 05:45:50;;;;;;;4.55;3.13;;;;;;;8.86;100.00;98244.09;5053650;28;20090;-79
2022/04/07 05:48:20;;;;;;;5.43;3.42;;;;;;;8.87;100.00;98244.94;5020751;28;20044;-80
2022/04/07 05:50:46;;;;;;;5.63;3.55;;;;;;;8.87;100.00;98242.31;5025682;28;20044;-80
2022/04/07 05:53:13;;;;;;;4.72;3.28;;;;;;;8.90;100.00;98240.34;5042953;28;20040;-79
2022/04/07 05:55:40;;;;;;;4.72;3.40;;;;;;;8.79;100.00;98228.69;5032020;28;20037;-80
2022/04/07 05:58:08;;;;;;;4.25;3.15;;;;;;;8.80;100.00;98235.66;5044670;28;20078;-79
2022/04/07 06:00:38;;;;;;;6.18;3.47;;;;;;;8.81;100.00;98219.75;5045983;28;20040;-80
2022/04/07 06:03:04;;;;;;;5.88;3.08;;;;;;;8.82;100.00;98221.47;5050046;28;20063;-80
2022/04/07 06:05:31;;;;;;;7.05;4.50;;;;;;;8.89;100.00;98212.31;5049634;28;20036;-80
2022/04/07 06:07:59;;;;;;;5.55;4.15;;;;;;;8.81;100.00;98206.59;5039417;28;20041;-79
2022/04/07 06:10:28;;;;;;;6.63;4.10;;;;;;;8.74;100.00;98208.72;5050188;28;20045;-80
2022/04/07 06:12:55;;;;;;;7.05;4.00;;;;;;;8.93;100.00;98208.59;5043831;28;20049;-79
2022/04/07 06:15:23;;;;;;;7.28;3.95;;;;;;;8.94;100.00;98205.03;5027311;28;20063;-80
2022/04/07 06:17:50;;;;;;;7.40;4.15;;;;;;;8.99;100.00;98199.50;5061106;28;20132;-79
2022/04/07 06:20:17;;;;;;;6.95;4.63;;;;;;;8.99;100.00;98194.25;5048684;28;20044;-79
2022/04/07 06:22:44;;;;;;;6.25;3.50;;;;;;;9.02;100.00;98194.09;5048602;28;20419;-80
2022/04/07 06:25:13;;;;;;;7.45;4.13;;;;;;;9.12;100.00;98190.03;5044512;28;20048;-79
2022/04/07 06:27:41;;;;;;;6.53;3.70;;;;;;;9.25;100.00;98190.22;5046959;28;20051;-80
2022/04/07 06:30:10;;;;;;;6.70;4.05;;;;;;;9.37;100.00;98183.44;5044734;28;20052;-80
2022/04/07 06:32:37;;;;;;;4.80;3.90;;;;;;;9.51;100.00;98173.84;5085307;23;20042;-89
2022/04/07 06:35:06;;;;;;;5.63;3.95;;;;;;;9.67;100.00;98170.31;5030320;28;20049;-87
2022/04/07 06:37:51;;;;;;;5.28;3.67;;;;;;;9.76;98.27;98172.47;5016435;28;20653;-87
2022/04/07 06:40:22;;;;;;;5.18;3.60;;;;;;;9.74;98.54;98167.25;5016341;28;20037;-87
2022/04/07 06:42:50;;;;;;;4.50;3.40;;;;;;;9.87;97.94;98165.63;4985894;28;20042;-87
2022/04/07 06:45:26;;;;;;;4.70;3.40;;;;;;;9.96;94.84;98177.44;4988284;28;20045;-87
2022/04/07 06:47:54;;;;;;;4.70;3.33;;;;;;;10.16;94.80;98160.44;4993913;28;20068;-87
2022/04/07 06:50:21;;;;;;;6.65;3.20;;;;;;;10.49;91.26;98152.34;5011640;28;20045;-87
2022/04/07 06:52:48;;;;;;;4.28;3.10;;;;;;;10.71;88.86;98147.47;4983538;28;20049;-87
2022/04/07 06:55:15;;;;;;;4.13;2.97;;;;;;;10.85;87.90;98151.91;5014897;28;20052;-87
2022/04/07 06:57:53;;;;;;;4.35;3.20;;;;;;;10.89;87.04;98145.47;5017011;28;20059;-87
2022/04/07 07:00:22;;;;;;;4.43;3.00;;;;;;;10.83;87.61;98132.66;5001967;28;20041;-87
2022/04/07 07:02:56;;;;;;;6.07;3.13;;;;;;;10.85;86.08;98124.66;5016490;28;20041;-86
2022/04/07 07:05:28;;;;;;;3.20;2.40;;;;;;;10.95;85.29;98115.22;5017290;28;20124;-88
2022/04/07 07:07:55;;;;;;;6.20;2.83;;;;;;;10.98;85.34;98113.22;5017113;28;20060;-87
2022/04/07 07:10:24;;;;;;;3.75;2.70;;;;;;;11.02;84.44;98105.09;5008627;28;20044;-87
2022/04/07 07:12:52;;;;;;;4.18;3.10;;;;;;;10.96;83.83;98099.25;5012057;28;20445;-87
2022/04/07 07:15:23;;;;;;;4.68;2.40;;;;;;;11.01;84.58;98109.50;5015169;28;20045;-86
2022/04/07 07:17:51;;;;;;;5.75;2.60;;;;;;;10.94;84.00;98097.66;5036130;28;20044;-85
2022/04/07 07:20:21;;;;;;;5.93;3.28;;;;;;;10.99;83.92;98087.63;5019234;28;20132;-87
2022/04/07 07:22:47;;;;;;;3.53;2.42;;;;;;;11.15;83.66;98095.44;5020145;28;20037;-88
2022/04/07 07:25:14;;;;;;;4.32;2.67;;;;;;;11.16;81.86;98091.84;5012849;28;20702;-87
2022/04/07 07:27:45;;;;;;;3.83;2.42;;;;;;;11.16;80.37;98082.13;4983988;28;20041;-87
2022/04/07 07:30:15;;;;;;;2.90;2.38;;;;;;;11.20;82.27;98073.06;4982794;28;20553;-86
2022/04/07 07:32:45;;;;;;;5.05;3.08;;;;;;;11.16;82.67;98065.44;4984038;28;20053;-86
2022/04/07 07:35:12;;;;;;;3.72;2.55;;;;;;;11.17;81.65;98062.69;5008034;28;20072;-87
2022/04/07 07:38:02;;;;;;;3.88;2.45;;;;;;;11.19;82.26;98063.44;4999873;28;20211;-87
2022/04/07 07:40:31;;;;;;;4.03;2.30;;;;;;;11.25;81.57;98057.75;5009194;28;20095;-87
2022/04/07 07:43:00;;;;;;;2.30;1.90;;;;;;;11.32;81.55;98047.63;4994554;28;20052;-84
2022/04/07 07:45:29;;;;;;;4.20;2.60;;;;;;;11.43;81.34;98044.28;5014509;28;20095;-87
2022/04/07 07:48:18;;;;;;;3.22;2.30;;;;;;;11.53;80.27;98037.47;5001200;28;20099;-86
2022/04/07 07:50:45;;;;;;;4.25;2.20;;;;;;;11.53;79.46;98040.09;5017860;28;20103;-87
2022/04/07 07:53:17;;;;;;;3.83;2.60;;;;;;;11.55;78.82;98038.19;5030878;28;20048;-86
2022/04/07 07:55:44;;;;;;;3.58;2.30;;;;;;;11.61;78.93;98021.09;4988405;28;20045;-86
2022/04/07 07:58:11;;;;;;;2.00;1.80;;;;;;;11.68;78.72;98017.06;4997710;28;20498;-86
2022/04/07 08:00:38;;;;;;;3.38;1.83;;;;;;;11.76;78.37;98020.88;4997720;28;20038;-86
2022/04/07 08:03:05;;;;;;;4.32;2.13;;;;;;;11.86;80.85;98015.03;5013515;28;20049;-87
2022/04/07 08:05:32;;;;;;;2.97;1.70;;;;;;;11.94;76.99;98018.84;5001645;28;20045;-87
2022/04/07 08:07:58;;;;;;;3.20;2.08;;;;;;;12.08;77.34;98012.59;5018283;28;20485;-86
2022/04/07 08:10:25;;;;;;;2.78;1.70;;;;;;;12.19;76.77;98020.66;5005420;28;20044;-86
2022/04/07 08:12:52;;;;;;;3.35;1.65;;;;;;;12.27;77.00;98007.72;5002095;28;20040;-88
2022/04/07 08:15:19;;;;;;;2.38;1.73;;;;;;;12.32;76.51;97997.66;5017594;28;20060;-86
2022/04/07 08:17:46;;;;;;;4.18;2.20;;;;;;;12.44;75.61;97992.44;5002026;28;20041;-86
2022/04/07 08:20:13;;;;;;;3.58;1.95;;;;;;;12.39;73.25;97983.03;5015254;28;20050;-87
2022/04/07 08:22:39;;;;;;;4.60;1.95;;;;;;;12.50;74.72;97976.13;5014974;28;20045;-88
2022/04/07 08:25:06;;;;;;;2.55;1.70;;;;;;;12.62;74.03;97964.69;5016008;28;20060;-86
2022/04/07 08:27:33;;;;;;;4.93;1.85;;;;;;;12.78;74.38;97962.63;5019070;28;20433;-87
2022/04/07 08:30:00;;;;;;;3.70;1.60;;;;;;;12.89;72.74;97962.69;5031215;28;20053;-86
2022/04/07 08:32:27;;;;;;;3.58;2.25;;;;;;;12.99;71.16;97960.22;4984293;28;20073;-87
2022/04/07 08:34:53;;;;;;;3.83;2.20;;;;;;;13.17;70.72;97964.16;5029462;28;20532;-87
2022/04/07 08:37:20;;;;;;;1.73;1.50;;;;;;;13.29;70.39;97946.53;5015173;28;20029;-86
2022/04/07 08:39:47;;;;;;;3.53;2.10;;;;;;;13.49;69.67;97961.78;5014178;28;20091;-86
2022/04/07 08:42:14;;;;;;;3.65;1.63;;;;;;;13.32;67.41;97940.16;5017241;28;20135;-86
2022/04/07 08:44:41;;;;;;;2.92;1.67;;;;;;;13.32;67.59;97932.19;5000524;28;20067;-86
2022/04/07 08:47:07;;;;;;;2.28;1.63;;;;;;;13.43;67.41;97935.72;5017618;28;20494;-87
2022/04/07 08:49:37;;;;;;;1.75;1.40;;;;;;;13.78;67.32;97927.72;5013004;28;20042;-86
2022/04/07 08:52:04;;;;;;;2.72;1.30;;;;;;;13.92;66.92;97923.16;4998743;28;20048;-86
2022/04/07 08:54:32;;;;;;;2.95;1.33;;;;;;;14.07;65.94;97924.63;4996093;28;20045;-86
2022/04/07 08:56:58;;;;;;;2.13;1.30;;;;;;;13.91;63.24;97918.81;5014692;28;20077;-86
2022/04/07 08:59:30;;;;;;;2.20;1.30;;;;;;;14.23;64.23;97926.94;5013796;28;20041;-86
2022/04/07 09:02:02;;;;;;;1.65;1.10;;;;;;;14.23;62.87;97911.84;5012753;28;20128;-87
2022/04/07 09:04:30;;;;;;;2.83;1.00;;;;;;;14.10;63.70;97927.03;5015730;28;20044;-87
2022/04/07 09:06:58;;;;;;;1.70;1.00;;;;;;;14.01;64.90;97919.78;5016461;28;20099;-87
2022/04/07 09:09:25;;;;;;;2.92;1.50;;;;;;;13.67;62.26;97902.97;5015088;28;20067;-87
2022/04/07 09:11:55;;;;;;;1.45;1.05;;;;;;;13.56;64.35;97910.94;5017002;28;20258;-87
2022/04/07 09:14:23;;;;;;;3.33;1.58;;;;;;;13.40;64.10;97909.44;5017052;28;20041;-88
2022/04/07 09:16:55;;;;;;;2.10;1.23;;;;;;;13.20;63.97;97899.47;5015636;28;20041;-87
2022/04/07 09:19:22;;;;;;;2.72;1.20;;;;;;;13.06;63.43;97881.09;4997568;28;20045;-87
2022/04/07 09:22:05;;;;;;;2.05;1.25;;;;;;;12.92;64.82;97877.66;5008376;28;20501;-86
2022/04/07 09:24:38;;;;;;;1.60;1.30;;;;;;;12.89;64.47;97866.44;5031414;28;20108;-86
2022/04/07 09:27:08;;;;;;;2.45;1.40;;;;;;;12.94;66.58;97865.13;5018786;28;20045;-87
2022/04/07 09:29:43;;;;;;;1.55;1.33;;;;;;;13.19;66.44;97855.34;5017044;28;20047;-87
2022/04/07 09:32:20;;;;;;;3.25;1.10;;;;;;;13.43;66.22;97850.00;5018243;28;20053;-86
2022/04/07 09:34:57;;;;;;;0.80;0.80;;;;;;;13.57;66.05;97856.91;5016194;28;20067;-87
2022/04/07 09:37:26;;;;;;;2.42;1.10;;;;;;;13.70;65.14;97836.41;5012240;28;20504;-89
2022/04/07 09:40:12;;;;;;;1.20;1.08;;;;;;;14.30;64.85;97825.41;5002388;28;20069;-87
2022/04/07 09:42:41;;;;;;;1.77;1.10;;;;;;;14.40;62.85;97816.69;5002506;28;20049;-88
2022/04/07 09:45:12;;;;;;;2.47;1.35;;;;;;;14.46;61.82;97806.44;5001729;28;20052;-88
2022/04/07 09:47:48;;;;;;;3.15;1.10;;;;;;;14.42;61.80;97814.75;5004284;28;20703;-88
2022/04/07 09:50:24;;;;;;;0.88;0.88;;;;;;;14.48;61.45;97804.50;4999368;28;20052;-86
2022/04/07 09:52:58;;;;;;;1.63;1.10;;;;;;;14.68;61.91;97799.34;5006663;28;20045;-87
2022/04/07 09:55:32;;;;;;;2.15;0.90;;;;;;;14.84;60.99;97797.13;5014468;28;20560;-87
2022/04/07 09:58:00;;;;;;;2.25;1.10;;;;;;;14.73;60.14;97781.22;5029604;28;20600;-87
2022/04/07 10:00:27;;;;;;;0.73;0.73;;;;;;;14.53;61.57;97794.31;5030865;28;20045;-87
2022/04/07 10:02:54;;;;;;;1.17;0.90;;;;;;;14.47;59.87;97786.03;5003367;28;20080;-87
2022/04/07 10:05:21;;;;;;;1.70;1.30;;;;;;;14.25;61.35;97778.94;5029695;28;20048;-87
2022/04/07 10:07:48;;;;;;;1.52;0.80;;;;;;;13.98;62.45;97763.44;5001205;28;20136;-87
2022/04/07 10:10:18;;;;;;;1.05;0.85;;;;;;;13.90;62.39;97760.56;5013550;28;20044;-87
2022/04/07 10:12:47;;;;;;;1.08;1.00;;;;;;;13.95;63.91;97763.66;5014969;28;20516;-88
2022/04/07 10:15:17;;;;;;;1.30;1.02;;;;;;;14.09;64.08;97753.63;5029074;28;20049;-87
2022/04/07 10:17:45;;;;;;;1.33;0.90;;;;;;;14.19;64.35;97739.59;5013188;28;20401;-87
2022/04/07 10:20:15;;;;;;;1.52;0.85;;;;;;;14.21;63.97;97735.00;5012185;28;20042;-87
2022/04/07 10:23:02;;;;;;;1.40;0.80;;;;;;;14.09;63.88;97737.69;5012951;28;20041;-87
2022/04/07 10:25:30;;;;;;;2.15;1.00;;;;;;;13.92;64.10;97722.28;5016065;28;20126;-89
2022/04/07 10:27:59;;;;;;;1.55;1.00;;;;;;;13.73;66.13;97728.25;5017474;28;20493;-88
2022/04/07 10:30:32;;;;;;;0.82;0.82;;;;;;;13.46;67.11;97712.72;5015721;28;20561;-87
2022/04/07 10:32:59;;;;;;;1.60;1.10;;;;;;;13.41;67.67;97696.31;5019047;28;20459;-87
2022/04/07 10:35:34;;;;;;;1.25;0.82;;;;;;;13.35;69.19;97696.78;4988814;28;20124;-86
2022/04/07 10:38:02;;;;;;;2.40;0.80;;;;;;;13.26;67.98;97697.53;4998747;28;20041;-87
2022/04/07 10:40:50;;;;;;;1.48;0.80;;;;;;;13.10;66.91;97676.63;5036211;28;20052;-85
2022/04/07 10:43:22;;;;;;;1.95;1.15;;;;;;;12.96;67.04;97659.19;4998768;28;20132;-86
2022/04/07 10:46:18;;;;;;;1.15;1.00;;;;;;;13.12;67.96;97655.34;4991527;28;20055;-86
2022/04/07 10:48:50;;;;;;;2.13;0.73;;;;;;;13.30;66.38;97648.59;5022036;28;20095;-86
2022/04/07 10:51:18;;;;;;;1.17;0.80;;;;;;;13.33;66.77;97628.94;5002360;28;20573;-86
2022/04/07 10:53:51;;;;;;;1.70;0.75;;;;;;;13.36;65.41;97641.94;4984703;28;20068;-87
2022/04/07 10:56:34;;;;;;;1.70;0.80;;;;;;;13.32;65.24;97617.50;5016616;28;20045;-87
2022/04/07 10:59:17;;;;;;;1.60;1.43;;;;;;;13.29;65.16;97619.56;5017626;28;20037;-87
2022/04/07 11:01:44;;;;;;;0.98;0.80;;;;;;;13.27;67.18;97611.72;5022416;28;20052;-88
2022/04/07 11:04:20;;;;;;;1.17;0.88;;;;;;;13.22;67.59;97606.78;5013549;28;20647;-87
2022/04/07 11:07:15;;;;;;;0.93;0.80;;;;;;;13.16;66.60;97601.94;5019165;28;20043;-87
2022/04/07 11:09:54;;;;;;;1.58;0.80;;;;;;;13.06;65.81;97589.56;5022608;28;20413;-87
2022/04/07 11:12:25;;;;;;;1.00;0.70;;;;;;;13.02;67.54;97583.63;5003547;28;20052;-86
2022/04/07 11:14:54;;;;;;;1.50;0.80;;;;;;;12.92;70.31;97570.28;5017951;28;20040;-87
2022/04/07 11:17:34;;;;;;;0.70;0.60;;;;;;;12.82;71.95;97574.63;5003792;28;20045;-86
2022/04/07 11:20:15;;;;;;;1.00;0.80;;;;;;;12.59;75.65;97571.13;5035888;28;20056;-86
2022/04/07 11:23:13;;;;;;;1.48;1.38;;;;;;;12.34;79.30;97579.28;5016227;28;20046;-86
2022/04/07 11:25:42;;;;;;;3.10;1.00;;;;;;;12.10;82.85;97560.81;5000384;28;20064;-88
2022/04/07 11:28:25;;;;;;;2.75;1.05;;;;;;;11.94;82.07;97560.28;5032077;28;20103;-86
2022/04/07 11:31:00;;;;;;;1.25;0.90;;;;;;;11.92;84.86;97552.47;4983990;28;20477;-87
2022/04/07 11:33:28;;;;;;;1.20;1.00;;;;;;;11.92;86.87;97554.25;4996355;28;20045;-86
2022/04/07 11:36:00;;;;;;;1.20;0.95;;;;;;;11.97;85.38;97537.09;5010208;28;20045;-87
2022/04/07 11:38:28;;;;;;;1.20;1.08;;;;;;;11.93;85.33;97530.34;5014241;28;20133;-87
2022/04/07 11:40:58;;;;;;;1.33;0.93;;;;;;;11.93;86.42;97532.13;5018433;28;20037;-86
2022/04/07 11:43:25;;;;;;;1.40;0.85;;;;;;;11.90;87.61;97525.28;5033498;28;20045;-88
2022/04/07 11:45:53;;;;;;;1.60;0.90;;;;;;;11.89;89.97;97520.13;4996259;28;20418;-86